Time;durP1;ratioP1;P1;durP2;ratioP2;P2;SDS_P1;SDS_P2;PMS_P1;PMS_P2;Temp;Humidity;BMP_temperature;BMP_pressure;BME280_temperature;BME280_humidity;BME280_pressure;Samples;Min_cycle;Max_cycle;Signal;HPM_P1;HPM_P2
2022/07/18 00:02:09;;;;;;;5.72;3.70;;;;;;;17.64;100.00;97092.09;5047369;28;20084;-51
2022/07/18 00:04:38;;;;;;;6.07;3.47;;;;;;;17.39;100.00;97093.19;5047183;28;20085;-45
2022/07/18 00:07:06;;;;;;;7.07;3.75;;;;;;;17.21;100.00;97091.56;5048602;28;20104;-51
2022/07/18 00:09:35;;;;;;;5.43;3.60;;;;;;;17.38;100.00;97087.03;5036676;28;20096;-45
2022/07/18 00:12:04;;;;;;;5.35;3.50;;;;;;;17.30;100.00;97079.03;5048739;28;20099;-48
2022/07/18 00:14:33;;;;;;;8.18;3.40;;;;;;;17.22;100.00;97092.41;5051419;28;20084;-45
2022/07/18 00:17:02;;;;;;;9.90;3.72;;;;;;;17.11;100.00;97090.09;5045195;28;20065;-50
2022/07/18 00:19:32;;;;;;;6.05;3.40;;;;;;;17.01;100.00;97095.63;5043722;28;20550;-45
2022/07/18 00:22:00;;;;;;;4.65;3.13;;;;;;;16.94;100.00;97102.63;5052328;28;20072;-47
2022/07/18 00:24:29;;;;;;;6.47;3.45;;;;;;;16.93;100.00;97107.13;5051370;28;20089;-44
2022/07/18 00:26:57;;;;;;;4.72;3.00;;;;;;;16.94;100.00;97100.78;5051687;28;20080;-45
2022/07/18 00:29:26;;;;;;;6.35;3.40;;;;;;;16.82;100.00;97104.78;5052111;28;20087;-45
2022/07/18 00:31:55;;;;;;;5.20;3.67;;;;;;;16.70;100.00;97103.44;5045799;28;20076;-49
2022/07/18 00:34:23;;;;;;;5.63;3.53;;;;;;;16.72;100.00;97096.94;5052190;28;20088;-47
2022/07/18 00:36:53;;;;;;;8.50;3.90;;;;;;;16.55;100.00;97106.78;5051497;28;20073;-50
2022/07/18 00:39:21;;;;;;;6.22;4.15;;;;;;;16.07;100.00;97107.53;5048478;28;20482;-52
2022/07/18 00:41:50;;;;;;;7.13;3.78;;;;;;;16.14;100.00;97108.56;5048763;28;20179;-51
2022/07/18 00:44:19;;;;;;;7.75;4.15;;;;;;;16.09;100.00;97106.38;5048001;28;20123;-46
2022/07/18 00:46:49;;;;;;;6.22;3.40;;;;;;;16.01;100.00;97108.19;5049854;28;20157;-52
2022/07/18 00:49:18;;;;;;;7.18;3.72;;;;;;;16.27;100.00;97102.75;5052291;28;20517;-47
2022/07/18 00:51:46;;;;;;;7.30;3.63;;;;;;;16.42;100.00;97101.09;5045483;28;20606;-52
2022/07/18 00:54:16;;;;;;;5.50;3.67;;;;;;;16.16;100.00;97105.72;5050560;28;20083;-45
2022/07/18 00:56:45;;;;;;;5.28;3.63;;;;;;;16.37;100.00;97093.59;5051584;28;20081;-45
2022/07/18 00:59:14;;;;;;;5.22;3.50;;;;;;;16.37;100.00;97101.59;5051808;28;20088;-50
2022/07/18 01:01:46;;;;;;;7.20;3.55;;;;;;;16.51;100.00;97092.09;5052059;28;20466;-45
2022/07/18 01:04:17;;;;;;;5.47;3.70;;;;;;;16.53;100.00;97099.94;5051948;28;20079;-45
2022/07/18 01:06:46;;;;;;;6.28;3.15;;;;;;;16.52;100.00;97100.97;5051927;28;20068;-45
2022/07/18 01:09:17;;;;;;;5.45;3.33;;;;;;;16.45;100.00;97095.47;5050062;28;20758;-47
2022/07/18 01:11:47;;;;;;;5.57;3.58;;;;;;;16.49;100.00;97101.28;5048071;28;20503;-50
2022/07/18 01:14:16;;;;;;;5.00;3.60;;;;;;;16.53;100.00;97095.44;5048169;28;20084;-52
2022/07/18 01:16:45;;;;;;;4.78;3.50;;;;;;;16.44;100.00;97100.94;5046146;28;20081;-49
2022/07/18 01:19:13;;;;;;;5.45;3.63;;;;;;;16.32;100.00;97097.78;5049653;28;20095;-50
2022/07/18 01:21:43;;;;;;;4.18;3.33;;;;;;;16.09;100.00;97098.41;5045602;28;20075;-46
2022/07/18 01:24:11;;;;;;;3.85;3.20;;;;;;;16.05;100.00;97098.91;5047429;28;20075;-55
2022/07/18 01:26:40;;;;;;;5.93;3.10;;;;;;;15.78;100.00;97097.31;5046509;28;20056;-45
2022/07/18 01:29:09;;;;;;;4.50;3.20;;;;;;;15.86;100.00;97108.84;5047879;28;20072;-48
2022/07/18 01:31:37;;;;;;;4.75;3.50;;;;;;;15.77;100.00;97103.66;5048000;28;20073;-50
2022/07/18 01:34:05;;;;;;;6.93;3.40;;;;;;;15.54;100.00;97111.31;5047579;28;20084;-49
2022/07/18 01:36:34;;;;;;;3.78;3.20;;;;;;;15.59;100.00;97109.88;5048853;28;20072;-45
2022/07/18 01:39:04;;;;;;;7.20;3.33;;;;;;;15.72;100.00;97111.25;5049654;28;20452;-48
2022/07/18 01:41:32;;;;;;;7.05;3.88;;;;;;;15.64;100.00;97110.19;5045772;28;20072;-45
2022/07/18 01:44:02;;;;;;;5.43;3.85;;;;;;;15.55;100.00;97105.00;5050258;28;20072;-50
2022/07/18 01:46:31;;;;;;;5.57;3.67;;;;;;;15.82;100.00;97098.66;5049005;28;20111;-45
2022/07/18 01:49:00;;;;;;;4.22;3.50;;;;;;;15.61;100.00;97107.84;5051583;28;20076;-53
2022/07/18 01:51:28;;;;;;;7.03;4.18;;;;;;;15.48;100.00;97103.97;5047619;28;20090;-50
2022/07/18 01:54:01;;;;;;;8.02;4.93;;;;;;;15.32;100.00;97102.94;5049048;28;20056;-48
2022/07/18 01:56:30;;;;;;;7.35;4.63;;;;;;;15.38;100.00;97102.28;5048660;28;20095;-47
2022/07/18 01:59:02;;;;;;;6.90;5.00;;;;;;;15.45;100.00;97097.19;5045823;28;20076;-53
2022/07/18 02:01:30;;;;;;;5.88;5.03;;;;;;;15.37;100.00;97097.94;5046834;28;20072;-54
2022/07/18 02:03:59;;;;;;;6.80;4.70;;;;;;;15.53;100.00;97099.03;5048282;28;20052;-55
2022/07/18 02:06:27;;;;;;;10.52;4.93;;;;;;;15.57;100.00;97101.19;5046983;28;20072;-50
2022/07/18 02:08:56;;;;;;;7.35;4.78;;;;;;;15.54;100.00;97098.03;5045162;28;20076;-51
2022/07/18 02:11:25;;;;;;;6.45;4.70;;;;;;;15.55;100.00;97102.34;5047399;28;20068;-53
2022/07/18 02:13:55;;;;;;;5.93;4.50;;;;;;;15.59;100.00;97103.72;5044223;28;20598;-52
2022/07/18 02:16:23;;;;;;;4.97;3.80;;;;;;;15.29;100.00;97097.91;5048286;28;20092;-53
2022/07/18 02:18:52;;;;;;;6.30;3.90;;;;;;;15.22;100.00;97096.88;5046430;28;20076;-47
2022/07/18 02:21:20;;;;;;;5.50;4.10;;;;;;;15.17;100.00;97101.81;5027814;28;20080;-56
2022/07/18 02:23:50;;;;;;;6.30;4.30;;;;;;;15.11;100.00;97090.03;5045080;28;20073;-45
2022/07/18 02:26:19;;;;;;;6.50;4.40;;;;;;;15.31;100.00;97090.63;5042764;28;20562;-46
2022/07/18 02:28:47;;;;;;;6.97;4.18;;;;;;;15.25;100.00;97088.59;5044907;28;20088;-45
2022/07/18 02:31:17;;;;;;;8.18;4.15;;;;;;;15.29;100.00;97089.13;5041514;28;20094;-43
2022/07/18 02:33:45;;;;;;;6.35;4.25;;;;;;;15.26;100.00;97094.75;5045585;28;20079;-43
2022/07/18 02:36:14;;;;;;;5.35;3.65;;;;;;;14.83;100.00;97093.81;5043511;28;20087;-45
2022/07/18 02:38:42;;;;;;;4.25;3.85;;;;;;;14.81;100.00;97090.50;5045172;28;20132;-47
2022/07/18 02:41:11;;;;;;;5.85;3.80;;;;;;;14.91;100.00;97093.88;5044354;28;20095;-46
2022/07/18 02:43:39;;;;;;;6.22;3.92;;;;;;;15.03;100.00;97087.31;5043589;28;20076;-43
2022/07/18 02:46:07;;;;;;;5.10;3.70;;;;;;;15.12;100.00;97093.50;5050959;28;20075;-43
2022/07/18 02:48:37;;;;;;;7.53;3.95;;;;;;;15.23;100.00;97095.06;5048747;28;20093;-48
2022/07/18 02:51:06;;;;;;;8.27;3.50;;;;;;;15.26;100.00;97100.91;5049827;28;20751;-44
2022/07/18 02:53:35;;;;;;;3.92;3.40;;;;;;;15.19;100.00;97099.84;5049275;28;20076;-49
2022/07/18 02:56:04;;;;;;;6.15;3.65;;;;;;;15.03;100.00;97097.94;5048267;28;20075;-50
2022/07/18 02:58:33;;;;;;;6.47;3.70;;;;;;;14.93;100.00;97103.38;5047098;28;20087;-43
2022/07/18 03:01:01;;;;;;;5.88;3.63;;;;;;;14.97;100.00;97106.53;5050492;28;20079;-50
2022/07/18 03:03:30;;;;;;;3.92;3.05;;;;;;;14.94;100.00;97106.84;5046549;28;20099;-48
2022/07/18 03:05:59;;;;;;;4.38;3.25;;;;;;;14.96;100.00;97102.19;5047816;28;20079;-43
2022/07/18 03:08:28;;;;;;;6.65;3.65;;;;;;;14.93;100.00;97110.47;5043149;28;20538;-50
2022/07/18 03:10:56;;;;;;;5.93;3.60;;;;;;;14.76;100.00;97106.88;5046230;28;20198;-49
2022/07/18 03:13:25;;;;;;;5.25;3.60;;;;;;;14.58;100.00;97106.91;5047903;28;20084;-47
2022/07/18 03:15:53;;;;;;;5.55;4.07;;;;;;;14.71;100.00;97119.78;5024700;28;20068;-44
2022/07/18 03:18:22;;;;;;;4.15;3.20;;;;;;;14.91;100.00;97112.47;5043462;28;20077;-45
2022/07/18 03:20:50;;;;;;;6.57;3.72;;;;;;;14.82;100.00;97118.69;5047170;28;20071;-46
2022/07/18 03:23:20;;;;;;;4.47;3.42;;;;;;;14.91;100.00;97108.00;5044498;28;20737;-45
2022/07/18 03:25:49;;;;;;;5.17;3.07;;;;;;;14.78;100.00;97117.34;5045680;28;20072;-46
2022/07/18 03:28:17;;;;;;;4.78;3.60;;;;;;;14.60;100.00;97120.03;5047387;28;21040;-44
2022/07/18 03:30:45;;;;;;;5.35;3.40;;;;;;;14.60;100.00;97115.56;5044363;28;20064;-48
2022/07/18 03:33:14;;;;;;;5.22;3.75;;;;;;;14.68;100.00;97118.28;5043950;28;20068;-43
2022/07/18 03:35:42;;;;;;;6.10;3.70;;;;;;;14.76;100.00;97119.31;5042712;28;20071;-45
2022/07/18 03:38:11;;;;;;;5.85;3.38;;;;;;;14.83;100.00;97123.88;5043579;28;20081;-45
2022/07/18 03:40:40;;;;;;;7.35;3.60;;;;;;;14.77;100.00;97121.84;5042579;28;20080;-44
2022/07/18 03:43:09;;;;;;;4.57;3.03;;;;;;;14.84;100.00;97130.84;5044207;28;20053;-42
2022/07/18 03:45:37;;;;;;;4.80;3.65;;;;;;;14.86;100.00;97131.50;5042092;28;20404;-45
2022/07/18 03:48:13;;;;;;;6.80;3.30;;;;;;;14.75;100.00;97134.41;5043143;28;20080;-43
2022/07/18 03:50:41;;;;;;;5.05;3.15;;;;;;;14.81;100.00;97136.47;5040645;28;20088;-44
2022/07/18 03:53:10;;;;;;;4.35;3.20;;;;;;;14.94;100.00;97134.25;5042075;28;20076;-49
2022/07/18 03:55:40;;;;;;;6.75;3.42;;;;;;;15.00;100.00;97132.75;5044055;28;20110;-49
2022/07/18 03:58:08;;;;;;;4.28;3.35;;;;;;;15.08;100.00;97135.50;5041962;28;20069;-49
2022/07/18 04:00:37;;;;;;;7.93;3.63;;;;;;;15.21;100.00;97137.75;5040164;28;20107;-47
2022/07/18 04:03:05;;;;;;;5.40;3.63;;;;;;;16.20;100.00;97139.81;5043702;28;20065;-51
2022/07/18 04:05:34;;;;;;;3.92;3.63;;;;;;;16.90;100.00;97133.28;5040852;28;20068;-44
2022/07/18 04:08:03;;;;;;;7.85;3.78;;;;;;;17.49;100.00;97126.66;5045542;28;20079;-51
2022/07/18 04:10:31;;;;;;;4.60;3.30;;;;;;;18.01;100.00;97114.63;5048601;28;20072;-47
2022/07/18 04:13:01;;;;;;;5.78;3.70;;;;;;;18.24;100.00;97120.00;5048752;28;20099;-46
2022/07/18 04:15:31;;;;;;;9.05;4.22;;;;;;;18.95;100.00;97104.59;5048774;28;20087;-44
2022/07/18 04:17:59;;;;;;;6.80;3.78;;;;;;;19.11;100.00;97104.47;5049764;28;20081;-49
2022/07/18 04:20:28;;;;;;;6.00;4.10;;;;;;;19.13;100.00;97110.47;5048417;28;20073;-47
2022/07/18 04:22:57;;;;;;;7.05;4.20;;;;;;;19.34;100.00;97112.41;5040860;28;20073;-46
2022/07/18 04:25:28;;;;;;;5.07;3.80;;;;;;;19.55;100.00;97105.50;5048376;28;20178;-48
2022/07/18 04:27:56;;;;;;;;;;;;;;;20.28;100.00;97109.09;5049020;28;20073;-46
2022/07/18 04:30:27;;;;;;;4.28;3.75;;;;;;;20.57;100.00;97117.03;5048592;28;20355;-43
2022/07/18 04:32:56;;;;;;;4.82;3.70;;;;;;;21.61;100.00;97107.53;5048239;28;20758;-52
2022/07/18 04:35:25;;;;;;;3.83;3.53;;;;;;;21.63;100.00;97108.16;5048580;28;20111;-49
2022/07/18 04:37:53;;;;;;;4.25;3.72;;;;;;;21.03;100.00;97110.44;5048532;28;20088;-49
2022/07/18 04:40:22;;;;;;;4.28;3.80;;;;;;;21.41;100.00;97110.94;5048354;28;20091;-44
2022/07/18 04:42:50;;;;;;;5.72;4.20;;;;;;;21.76;100.00;97116.28;5048311;28;20730;-48
2022/07/18 04:45:21;;;;;;;4.70;4.20;;;;;;;21.06;100.00;97120.78;5048444;28;20088;-50
2022/07/18 04:47:52;;;;;;;4.97;4.38;;;;;;;22.01;100.00;97121.97;5043498;28;20080;-49
2022/07/18 04:50:20;;;;;;;;;;;;;;;23.50;98.52;97112.84;5048385;28;20483;-46
2022/07/18 04:52:49;;;;;;;8.75;3.78;;;;;;;23.79;93.23;97112.41;5048220;28;19979;-46
2022/07/18 04:55:19;;;;;;;5.50;3.87;;;;;;;23.71;86.88;97107.28;5048483;28;20088;-44
2022/07/18 04:57:47;;;;;;;6.15;3.60;;;;;;;24.62;83.16;97107.03;5043954;28;20094;-47
2022/07/18 05:00:17;;;;;;;5.28;3.47;;;;;;;25.24;74.27;97099.09;5043989;28;20079;-47
2022/07/18 05:02:47;;;;;;;5.10;3.50;;;;;;;25.52;72.09;97106.72;5052043;28;20080;-47
2022/07/18 05:05:17;;;;;;;;;;;;;;;25.57;70.62;97106.06;5051880;28;20084;-46
2022/07/18 05:07:47;;;;;;;4.80;3.95;;;;;;;25.97;66.06;97098.34;5056542;28;19952;-50
2022/07/18 05:10:16;;;;;;;;;;;;;;;26.25;67.56;97108.59;5052810;28;20088;-50
2022/07/18 05:12:49;;;;;;;4.25;3.55;;;;;;;26.20;67.84;97108.47;5051149;28;19951;-44
2022/07/18 05:15:19;;;;;;;5.10;4.25;;;;;;;26.24;68.81;97098.84;5051911;28;20072;-43
2022/07/18 05:17:48;;;;;;;7.05;3.90;;;;;;;25.45;77.64;97108.66;5044473;28;20099;-45
2022/07/18 05:20:20;;;;;;;5.30;4.80;;;;;;;25.26;76.43;97105.13;5050816;28;20095;-46
2022/07/18 05:22:51;;;;;;;5.95;4.93;;;;;;;24.72;84.03;97111.97;5051575;28;20077;-45
2022/07/18 05:25:21;;;;;;;6.10;5.20;;;;;;;24.28;93.61;97107.44;5051358;28;20080;-45
2022/07/18 05:27:50;;;;;;;5.53;4.65;;;;;;;24.27;92.98;97111.19;5051716;28;20081;-49
2022/07/18 05:30:19;;;;;;;6.05;5.05;;;;;;;24.48;98.17;97110.88;5051783;28;20099;-46
2022/07/18 05:32:47;;;;;;;8.00;4.68;;;;;;;24.20;96.98;97113.91;5051188;28;20056;-46
2022/07/18 05:35:18;;;;;;;6.22;4.68;;;;;;;23.87;100.00;97116.72;5051165;28;20199;-43
2022/07/18 05:37:46;;;;;;;5.45;4.82;;;;;;;23.92;100.00;97115.06;5055943;28;20531;-48
2022/07/18 05:40:15;;;;;;;9.60;4.60;;;;;;;23.81;100.00;97107.66;5051162;28;20092;-43
2022/07/18 05:42:44;;;;;;;5.65;4.90;;;;;;;23.69;100.00;97107.47;5048334;28;20083;-51
2022/07/18 05:45:22;;;;;;;5.85;4.47;;;;;;;24.80;100.00;97110.88;5043462;28;20073;-51
2022/07/18 05:47:51;;;;;;;6.68;4.47;;;;;;;24.76;100.00;97115.03;5044587;28;20077;-48
2022/07/18 05:50:21;;;;;;;5.53;4.57;;;;;;;24.78;100.00;97107.56;5049418;28;20075;-54
2022/07/18 05:52:50;;;;;;;5.88;4.65;;;;;;;23.97;100.00;97111.72;5047213;28;20526;-46
2022/07/18 05:55:18;;;;;;;6.00;4.50;;;;;;;23.42;100.00;97108.53;5043508;28;20072;-48
2022/07/18 05:57:47;;;;;;;5.57;4.60;;;;;;;23.18;100.00;97105.47;5050856;28;20555;-44
2022/07/18 06:00:17;;;;;;;5.45;4.22;;;;;;;24.18;100.00;97105.19;5050825;28;20084;-46
2022/07/18 06:03:09;;;;;;;6.70;4.00;;;;;;;23.60;100.00;97103.31;5049062;28;20061;-44
2022/07/18 06:05:40;;;;;;;5.63;4.28;;;;;;;23.59;100.00;97100.84;5050567;28;20080;-44
2022/07/18 06:08:08;;;;;;;8.10;4.80;;;;;;;22.35;100.00;97110.34;5048240;28;20472;-47
2022/07/18 06:10:37;;;;;;;8.70;4.35;;;;;;;23.64;100.00;97096.47;5050489;28;20142;-44
2022/07/18 06:13:11;;;;;;;7.45;4.45;;;;;;;23.69;100.00;97102.06;5049298;28;20084;-49
2022/07/18 06:15:39;;;;;;;7.15;4.25;;;;;;;23.57;100.00;97108.28;5046963;28;20077;-50
2022/07/18 06:18:08;;;;;;;7.50;4.50;;;;;;;23.39;100.00;97107.09;5044128;28;20084;-48
2022/07/18 06:20:36;;;;;;;6.43;4.88;;;;;;;23.24;100.00;97101.13;5050675;28;20100;-45
2022/07/18 06:23:06;;;;;;;5.68;4.32;;;;;;;23.15;100.00;97103.19;5050505;28;20099;-43
2022/07/18 06:25:35;;;;;;;6.20;4.50;;;;;;;23.13;100.00;97104.44;5048271;28;20068;-45
2022/07/18 06:28:03;;;;;;;6.15;4.68;;;;;;;23.17;100.00;97103.81;5050114;28;20064;-46
2022/07/18 06:30:31;;;;;;;6.03;4.75;;;;;;;22.95;100.00;97100.53;5045044;28;20089;-45
2022/07/18 06:33:00;;;;;;;5.88;4.68;;;;;;;23.08;100.00;97104.22;5050025;28;20095;-45
2022/07/18 06:35:28;;;;;;;6.70;4.38;;;;;;;23.30;100.00;97092.22;5050476;28;20106;-49
2022/07/18 06:37:56;;;;;;;5.70;4.63;;;;;;;23.06;100.00;97101.75;5049790;28;20091;-50
2022/07/18 06:40:26;;;;;;;8.05;5.05;;;;;;;22.94;100.00;97100.72;5041004;28;20092;-49
2022/07/18 06:42:55;;;;;;;7.97;4.65;;;;;;;23.30;100.00;97105.66;5048367;28;20076;-47
2022/07/18 06:45:23;;;;;;;5.40;4.65;;;;;;;23.26;100.00;97108.97;5050045;28;20098;-47
2022/07/18 06:47:51;;;;;;;9.35;4.97;;;;;;;23.90;100.00;97102.84;5049796;28;20076;-47
2022/07/18 06:50:20;;;;;;;5.20;4.53;;;;;;;23.84;100.00;97112.59;5046822;28;20076;-51
2022/07/18 06:52:48;;;;;;;8.45;4.47;;;;;;;24.16;100.00;97107.28;5049647;28;20052;-45
2022/07/18 06:55:17;;;;;;;5.35;4.50;;;;;;;24.54;100.00;97110.00;5050073;28;20134;-43
2022/07/18 06:57:47;;;;;;;7.63;4.40;;;;;;;24.71;100.00;97109.47;5049189;28;20554;-52
2022/07/18 07:00:16;;;;;;;5.63;3.97;;;;;;;24.58;100.00;97119.31;5049684;28;20714;-48
2022/07/18 07:02:46;;;;;;;7.60;4.10;;;;;;;24.85;100.00;97119.16;5050044;28;20487;-47
2022/07/18 07:05:15;;;;;;;7.93;4.18;;;;;;;25.06;100.00;97115.25;5049512;28;20480;-46
2022/07/18 07:07:44;;;;;;;6.47;3.75;;;;;;;24.98;98.70;97110.94;5050156;28;20095;-43
2022/07/18 07:10:16;;;;;;;6.97;4.03;;;;;;;25.39;94.09;97109.56;5043293;28;20645;-46
2022/07/18 07:12:49;;;;;;;4.45;3.70;;;;;;;25.48;97.47;97116.31;5044322;28;20072;-52
2022/07/18 07:15:20;;;;;;;7.00;4.13;;;;;;;25.40;100.00;97113.94;5050545;28;20095;-43
2022/07/18 07:17:49;;;;;;;9.55;4.20;;;;;;;25.53;100.00;97110.25;5049363;28;20077;-43
2022/07/18 07:20:20;;;;;;;3.97;3.53;;;;;;;25.73;99.58;97113.56;5049275;28;20095;-43
2022/07/18 07:22:51;;;;;;;4.82;3.88;;;;;;;24.99;100.00;97122.56;5048524;28;20077;-46
2022/07/18 07:25:21;;;;;;;4.32;3.42;;;;;;;25.56;91.16;97112.50;5049614;28;20080;-46
2022/07/18 07:27:51;;;;;;;;;;;;;;;25.99;83.62;97119.75;5050140;28;20477;-52
2022/07/18 07:30:20;;;;;;;5.57;3.80;;;;;;;25.75;88.90;97116.06;5049547;28;19959;-49
2022/07/18 07:32:50;;;;;;;4.78;3.55;;;;;;;26.30;80.32;97118.75;5049440;28;20479;-44
2022/07/18 07:35:19;;;;;;;5.07;3.38;;;;;;;26.04;79.27;97111.78;5049519;28;20091;-43
2022/07/18 07:37:50;;;;;;;5.13;3.45;;;;;;;26.39;80.61;97117.34;5049149;28;20076;-44
2022/07/18 07:40:19;;;;;;;6.65;3.83;;;;;;;26.62;75.07;97115.81;5056083;28;20482;-44
2022/07/18 07:42:48;;;;;;;3.50;3.10;;;;;;;26.45;67.96;97116.44;5049178;28;20645;-46
2022/07/18 07:45:18;;;;;;;4.45;2.95;;;;;;;26.07;65.71;97114.03;5049018;28;20488;-46
2022/07/18 07:47:46;;;;;;;;;;;;;;;26.75;62.22;97113.75;5041455;28;20103;-46
2022/07/18 07:50:15;;;;;;;3.25;2.95;;;;;;;26.65;67.93;97109.97;5049032;28;20424;-49
2022/07/18 07:52:45;;;;;;;6.30;3.72;;;;;;;26.64;66.34;97114.53;5048070;28;20089;-45
2022/07/18 07:55:13;;;;;;;5.00;3.70;;;;;;;26.37;66.96;97116.78;5047335;28;20102;-43
2022/07/18 07:57:42;;;;;;;4.10;3.47;;;;;;;26.42;65.63;97111.47;5048419;28;20084;-45
2022/07/18 08:00:11;;;;;;;4.40;3.47;;;;;;;27.24;64.01;97102.78;5048718;28;20088;-46
2022/07/18 08:02:55;;;;;;;3.95;3.55;;;;;;;27.43;63.58;97101.63;5045802;28;20073;-46
2022/07/18 08:05:28;;;;;;;3.40;2.95;;;;;;;27.55;61.08;97100.78;5048805;28;20080;-50
2022/07/18 08:07:56;;;;;;;3.33;2.95;;;;;;;27.14;61.00;97097.13;5041772;28;20110;-47
2022/07/18 08:10:25;;;;;;;5.15;3.25;;;;;;;27.41;59.48;97106.44;5048741;28;20084;-44
2022/07/18 08:12:53;;;;;;;4.97;2.85;;;;;;;27.37;59.92;97105.25;5048628;28;20091;-46
2022/07/18 08:15:22;;;;;;;4.38;2.80;;;;;;;27.52;58.93;97103.97;5049351;28;20092;-50
2022/07/18 08:17:52;;;;;;;4.22;3.10;;;;;;;27.17;60.41;97108.31;5048700;28;20079;-44
2022/07/18 08:20:21;;;;;;;3.25;2.70;;;;;;;27.53;64.21;97097.47;5048008;28;20124;-45
2022/07/18 08:22:57;;;;;;;4.25;2.80;;;;;;;28.17;61.00;97098.31;5048269;28;20099;-48
2022/07/18 08:25:26;;;;;;;3.90;2.65;;;;;;;28.25;53.10;97097.09;5048510;28;20088;-48
2022/07/18 08:27:54;;;;;;;5.10;3.05;;;;;;;28.51;54.15;97098.44;5048423;28;20076;-50
2022/07/18 08:30:23;;;;;;;3.40;3.00;;;;;;;28.63;51.95;97099.19;5048288;28;20077;-47
2022/07/18 08:32:52;;;;;;;3.35;2.60;;;;;;;28.03;57.46;97100.47;5045473;28;20076;-49
2022/07/18 08:35:21;;;;;;;7.03;2.78;;;;;;;28.17;56.15;97095.59;5047169;28;20065;-45
2022/07/18 08:37:50;;;;;;;3.93;2.70;;;;;;;28.64;52.75;97100.88;5051355;28;20495;-43
2022/07/18 08:40:19;;;;;;;7.60;3.05;;;;;;;29.14;53.02;97102.81;5052233;28;20918;-46
2022/07/18 08:42:50;;;;;;;4.82;2.63;;;;;;;28.39;48.20;97102.03;5042687;28;20068;-47
2022/07/18 08:45:38;;;;;;;3.13;2.40;;;;;;;28.44;47.98;97097.78;5046958;28;20092;-43
2022/07/18 08:48:08;;;;;;;4.00;2.22;;;;;;;28.73;41.08;97099.38;5052203;28;20075;-47
2022/07/18 08:50:37;;;;;;;8.38;2.20;;;;;;;28.14;42.27;97094.19;5052058;28;20092;-44
2022/07/18 08:53:05;;;;;;;2.90;2.22;;;;;;;28.41;43.29;97095.53;5051816;28;20550;-47
2022/07/18 08:55:33;;;;;;;4.55;2.70;;;;;;;28.07;45.96;97098.94;5052141;28;20080;-49
2022/07/18 08:58:02;;;;;;;5.35;2.50;;;;;;;28.44;45.15;97101.31;5051673;28;20080;-50
2022/07/18 09:00:50;;;;;;;6.13;2.33;;;;;;;29.02;43.34;97091.22;5051611;28;20507;-49
2022/07/18 09:03:20;;;;;;;4.07;2.33;;;;;;;29.43;43.84;97092.66;5051338;28;20164;-50
2022/07/18 09:06:03;;;;;;;7.45;2.40;;;;;;;29.64;40.28;97084.84;5051785;28;20084;-46
2022/07/18 09:08:32;;;;;;;5.18;2.50;;;;;;;29.60;40.84;97086.41;5046616;28;20064;-44
2022/07/18 09:11:01;;;;;;;4.20;2.33;;;;;;;29.25;42.22;97082.06;5052035;28;20076;-46
2022/07/18 09:13:37;;;;;;;4.57;2.50;;;;;;;29.93;42.23;97088.19;5031587;28;20135;-43
2022/07/18 09:16:08;;;;;;;2.75;1.70;;;;;;;29.82;37.64;97083.72;5052058;28;20444;-46
2022/07/18 09:18:41;;;;;;;5.22;3.05;;;;;;;29.61;39.39;97088.06;5049773;28;20076;-45
2022/07/18 09:21:11;;;;;;;3.92;2.20;;;;;;;29.78;39.94;97081.50;5051751;28;20061;-44
2022/07/18 09:23:41;;;;;;;3.97;2.30;;;;;;;30.30;38.48;97079.41;5054182;28;20617;-53
2022/07/18 09:26:11;;;;;;;4.35;2.45;;;;;;;29.70;38.60;97083.84;5052513;28;20099;-54
2022/07/18 09:28:47;;;;;;;6.82;2.25;;;;;;;29.76;40.80;97089.06;5051769;28;20099;-46
2022/07/18 09:31:35;;;;;;;4.18;2.45;;;;;;;29.02;41.22;97091.22;5048949;28;20077;-46
2022/07/18 09:34:06;;;;;;;3.80;2.17;;;;;;;29.89;40.27;97087.06;5051316;28;20654;-46
2022/07/18 09:36:36;;;;;;;5.85;2.22;;;;;;;30.13;37.83;97088.44;5051445;28;20167;-53
2022/07/18 09:39:19;;;;;;;3.65;1.58;;;;;;;29.97;35.74;97090.16;5043986;28;20464;-47
2022/07/18 09:41:48;;;;;;;3.65;1.92;;;;;;;30.12;36.21;97086.81;5049278;28;20507;-45
2022/07/18 09:44:16;;;;;;;1.98;1.58;;;;;;;30.74;33.41;97085.56;5051574;28;20092;-48
2022/07/18 09:47:03;;;;;;;3.38;1.60;;;;;;;29.93;34.18;97082.75;5050229;28;20071;-47
2022/07/18 09:49:34;;;;;;;3.67;1.60;;;;;;;30.40;35.00;97084.97;5045007;28;20103;-48
2022/07/18 09:52:04;;;;;;;2.97;1.70;;;;;;;30.31;33.75;97100.09;5051081;28;20085;-44
2022/07/18 09:54:39;;;;;;;3.05;1.70;;;;;;;30.61;33.64;97086.00;5050750;28;20088;-47
2022/07/18 09:57:07;;;;;;;3.85;1.70;;;;;;;30.13;32.82;97080.28;5050256;28;20091;-49
2022/07/18 09:59:36;;;;;;;2.58;1.70;;;;;;;30.24;32.71;97087.50;5047004;28;20094;-50
2022/07/18 10:02:05;;;;;;;3.75;1.85;;;;;;;30.81;32.65;97075.31;5042099;28;20084;-53
2022/07/18 10:04:35;;;;;;;2.95;1.90;;;;;;;30.67;32.17;97082.25;5050070;28;20077;-48
2022/07/18 10:07:03;;;;;;;3.88;1.58;;;;;;;31.14;30.61;97076.97;5050804;28;20104;-51
2022/07/18 10:09:32;;;;;;;4.70;1.80;;;;;;;30.82;32.00;97071.50;5050461;28;20077;-44
2022/07/18 10:12:00;;;;;;;4.53;2.05;;;;;;;30.47;31.94;97078.22;5050667;28;20076;-48
2022/07/18 10:14:30;;;;;;;4.72;1.77;;;;;;;30.60;32.15;97079.72;5050562;28;20088;-49
2022/07/18 10:17:00;;;;;;;3.35;1.67;;;;;;;31.40;29.88;97075.25;5050139;28;20080;-50
2022/07/18 10:19:28;;;;;;;3.25;1.60;;;;;;;31.51;30.50;97075.31;5050334;28;20510;-48
2022/07/18 10:21:58;;;;;;;3.55;1.83;;;;;;;31.09;30.86;97081.53;5050630;28;20084;-47
2022/07/18 10:24:28;;;;;;;3.78;1.75;;;;;;;31.27;29.58;97083.03;5049500;28;20096;-46
2022/07/18 10:27:12;;;;;;;2.65;1.70;;;;;;;31.70;29.77;97072.97;5048093;28;20426;-47
2022/07/18 10:30:10;;;;;;;3.38;1.73;;;;;;;31.40;28.49;97066.25;5044165;28;20084;-49
2022/07/18 10:32:40;;;;;;;3.35;1.27;;;;;;;31.50;29.81;97069.03;5050808;28;20095;-48
2022/07/18 10:35:10;;;;;;;5.93;1.93;;;;;;;31.30;28.41;97080.59;5049418;28;20080;-51
2022/07/18 10:37:40;;;;;;;2.45;1.60;;;;;;;30.87;27.07;97068.84;5044418;28;20495;-48
2022/07/18 10:40:27;;;;;;;2.40;1.60;;;;;;;31.86;27.42;97072.75;5050185;28;20523;-51
2022/07/18 10:43:33;;;;;;;2.53;1.70;;;;;;;32.09;28.40;97066.06;5041311;28;20144;-46
2022/07/18 10:46:02;;;;;;;6.63;2.35;;;;;;;32.02;28.03;97068.22;5049867;28;20096;-48
2022/07/18 10:49:04;;;;;;;2.33;1.67;;;;;;;32.25;28.11;97069.66;5050452;28;20076;-54
2022/07/18 10:51:34;;;;;;;3.45;1.60;;;;;;;31.74;26.99;97063.16;5047923;28;20747;-48
2022/07/18 10:54:13;;;;;;;3.05;1.50;;;;;;;31.82;27.03;97058.00;5049928;28;20538;-48
2022/07/18 10:57:10;;;;;;;2.92;1.70;;;;;;;31.92;29.64;97057.28;5046063;28;20095;-48
2022/07/18 10:59:52;;;;;;;3.13;1.77;;;;;;;32.53;28.98;97060.19;5048282;28;20084;-47
2022/07/18 11:02:31;;;;;;;2.83;1.75;;;;;;;32.31;28.11;97059.56;5050306;28;20080;-47
2022/07/18 11:04:59;;;;;;;2.35;1.40;;;;;;;31.99;27.75;97060.56;5045771;28;20072;-57
2022/07/18 11:07:28;;;;;;;2.30;1.63;;;;;;;32.21;27.02;97057.66;5050245;28;20072;-50
2022/07/18 11:09:58;;;;;;;2.33;1.58;;;;;;;32.36;27.55;97057.69;5049234;28;20569;-48
2022/07/18 11:12:28;;;;;;;5.32;1.60;;;;;;;32.33;28.61;97055.47;5049319;28;20088;-49
2022/07/18 11:15:01;;;;;;;4.03;1.50;;;;;;;32.20;27.35;97055.19;5049681;28;20072;-50
2022/07/18 11:17:58;;;;;;;1.73;1.38;;;;;;;32.22;27.48;97045.63;5049513;28;20096;-49
2022/07/18 11:20:40;;;;;;;3.40;1.45;;;;;;;31.70;28.88;97043.78;5049094;28;20341;-51
2022/07/18 11:23:27;;;;;;;2.78;1.70;;;;;;;32.17;28.85;97040.16;5043957;28;20057;-49
2022/07/18 11:26:02;;;;;;;2.05;1.33;;;;;;;32.36;28.30;97040.47;5049103;28;20087;-45
2022/07/18 11:28:30;;;;;;;4.68;1.67;;;;;;;32.55;28.39;97038.06;5049297;28;20077;-49
2022/07/18 11:31:03;;;;;;;2.60;1.60;;;;;;;31.96;28.67;97038.47;5036999;28;20064;-46
2022/07/18 11:33:36;;;;;;;3.20;1.70;;;;;;;32.86;27.88;97033.44;5039334;28;20077;-48
2022/07/18 11:36:06;;;;;;;3.78;1.60;;;;;;;32.57;29.22;97030.44;5048742;28;20089;-49
2022/07/18 11:38:35;;;;;;;4.18;1.90;;;;;;;32.30;28.86;97034.19;5049235;28;20064;-50
2022/07/18 11:41:05;;;;;;;3.78;1.67;;;;;;;32.48;29.22;97027.41;5049146;28;20459;-50
2022/07/18 11:43:34;;;;;;;11.10;2.10;;;;;;;32.78;29.23;97028.53;5042728;28;20077;-51
2022/07/18 11:46:05;;;;;;;6.20;1.70;;;;;;;32.61;29.66;97032.34;5049202;28;20093;-48